Time;durP1;ratioP1;P1;durP2;ratioP2;P2;SDS_P1;SDS_P2;PMS_P1;PMS_P2;Temp;Humidity;BMP_temperature;BMP_pressure;BME280_temperature;BME280_humidity;BME280_pressure;Samples;Min_cycle;Max_cycle;Signal;HPM_P1;HPM_P2
2022/04/04 00:01:50;;;;;;;12.03;10.83;;;1.50;99.90;;;;;;5031809;28;20526;-43
2022/04/04 00:04:17;;;;;;;12.87;11.33;;;1.40;99.90;;;;;;5031379;28;20882;-43
2022/04/04 00:06:44;;;;;;;11.43;10.27;;;1.40;99.90;;;;;;5031783;28;20466;-42
2022/04/04 00:09:11;;;;;;;12.67;11.23;;;1.40;99.90;;;;;;5031214;28;20445;-45
2022/04/04 00:11:38;;;;;;;13.40;10.03;;;1.40;99.90;;;;;;5031816;28;20474;-42
2022/04/04 00:14:07;;;;;;;12.17;10.23;;;1.20;99.90;;;;;;5031660;28;20870;-42
2022/04/04 00:16:33;;;;;;;13.13;10.37;;;1.30;99.90;;;;;;5031394;28;20545;-45
2022/04/04 00:19:00;;;;;;;12.63;10.80;;;1.30;99.90;;;;;;5031360;28;20577;-42
2022/04/04 00:21:28;;;;;;;12.77;11.20;;;1.30;99.90;;;;;;5031412;28;20442;-43
2022/04/04 00:23:55;;;;;;;11.60;10.13;;;1.20;99.90;;;;;;5031284;28;20438;-42
2022/04/04 00:26:21;;;;;;;12.70;11.03;;;1.10;99.90;;;;;;5031462;28;20564;-42
2022/04/04 00:28:49;;;;;;;12.20;10.77;;;1.00;99.90;;;;;;5031553;28;20580;-44
2022/04/04 00:31:17;;;;;;;13.60;12.20;;;0.90;99.90;;;;;;5030942;28;20447;-42
2022/04/04 00:33:44;;;;;;;16.63;12.13;;;0.70;99.90;;;;;;5031340;28;20485;-42
2022/04/04 00:36:12;;;;;;;13.30;11.50;;;0.60;99.90;;;;;;5031285;28;20473;-43
2022/04/04 00:38:39;;;;;;;17.20;12.80;;;0.60;99.90;;;;;;5031226;28;20479;-45
2022/04/04 00:41:09;;;;;;;13.17;11.87;;;0.60;99.90;;;;;;5031016;28;20542;-42
2022/04/04 00:43:36;;;;;;;16.63;12.73;;;0.50;99.90;;;;;;5031175;28;20529;-43
2022/04/04 00:46:03;;;;;;;13.33;11.80;;;0.60;99.90;;;;;;5031161;28;20497;-42
2022/04/04 00:48:31;;;;;;;16.00;12.07;;;0.50;99.90;;;;;;5030966;28;20470;-43
2022/04/04 00:51:00;;;;;;;16.20;12.67;;;0.60;99.90;;;;;;5031015;28;20532;-43
2022/04/04 00:53:28;;;;;;;16.30;12.53;;;0.50;99.90;;;;;;5030819;28;20446;-42
2022/04/04 00:55:55;;;;;;;15.30;12.23;;;0.50;99.90;;;;;;5030975;28;20494;-43
2022/04/04 00:58:23;;;;;;;13.63;12.03;;;0.60;99.90;;;;;;5030973;28;20529;-45
2022/04/04 01:00:52;;;;;;;14.23;12.77;;;0.60;99.90;;;;;;5030836;28;20524;-43
2022/04/04 01:03:19;;;;;;;14.43;12.50;;;0.60;99.90;;;;;;5030955;28;20446;-43
2022/04/04 01:05:48;;;;;;;14.17;12.20;;;0.60;99.90;;;;;;5030734;28;20505;-43
2022/04/04 01:08:15;;;;;;;15.33;12.77;;;0.60;99.90;;;;;;5034238;28;20453;-42
2022/04/04 01:10:43;;;;;;;13.93;11.47;;;0.60;99.90;;;;;;5034809;28;20537;-43
2022/04/04 01:13:11;;;;;;;14.33;12.23;;;0.60;99.90;;;;;;5034939;28;20810;-43
2022/04/04 01:15:38;;;;;;;13.30;11.70;;;0.60;99.90;;;;;;5034894;28;20505;-43
2022/04/04 01:18:06;;;;;;;15.07;11.90;;;0.70;99.90;;;;;;5034762;28;20538;-42
2022/04/04 01:20:34;;;;;;;16.03;12.80;;;0.70;99.90;;;;;;5034441;28;20561;-42
2022/04/04 01:23:04;;;;;;;14.57;12.50;;;0.70;99.90;;;;;;5034929;28;20477;-43
2022/04/04 01:25:35;;;;;;;13.97;12.47;;;0.60;99.90;;;;;;5094366;22;21468;-42
2022/04/04 01:28:03;;;;;;;14.57;12.80;;;0.60;99.90;;;;;;5054731;28;20447;-42
2022/04/04 01:30:32;;;;;;;15.33;13.63;;;0.50;99.90;;;;;;5053853;28;20547;-42
2022/04/04 01:32:59;;;;;;;14.50;12.73;;;0.40;99.90;;;;;;5054436;28;20939;-42
2022/04/04 01:35:26;;;;;;;15.43;12.77;;;0.40;99.90;;;;;;5054297;28;20498;-42
2022/04/04 01:37:53;;;;;;;14.57;11.73;;;0.40;99.90;;;;;;5053873;28;20857;-43
2022/04/04 01:40:20;;;;;;;13.90;12.53;;;0.40;99.90;;;;;;5053830;28;21048;-42
2022/04/04 01:42:54;;;;;;;13.57;10.90;;;0.40;99.90;;;;;;5054270;28;20943;-41
2022/04/04 01:46:23;;;;;;;18.30;14.87;;;0.40;99.90;;;;;;5054129;28;20530;-42
2022/04/04 01:48:09;;;;;;;16.27;12.27;;;0.30;99.90;;;;;;5053992;28;20445;-42
2022/04/04 01:50:36;;;;;;;16.60;12.97;;;0.30;99.90;;;;;;5053705;28;20998;-42
2022/04/04 01:55:47;;;;;;;13.80;11.83;;;0.40;99.90;;;;;;5054071;28;20441;-42
2022/04/04 01:58:16;;;;;;;14.03;12.57;;;0.40;99.90;;;;;;5054169;28;20963;-42
2022/04/04 02:00:43;;;;;;;19.30;14.47;;;0.40;99.90;;;;;;5053534;28;20560;-42
2022/04/04 02:03:10;;;;;;;16.00;13.13;;;0.30;99.90;;;;;;5053714;28;20477;-42
2022/04/04 02:05:37;;;;;;;14.20;12.17;;;0.30;99.90;;;;;;5053733;28;20543;-42
2022/04/04 02:08:04;;;;;;;15.63;12.80;;;0.40;99.90;;;;;;5053536;28;20487;-42
2022/04/04 02:10:32;;;;;;;15.77;12.83;;;0.50;99.90;;;;;;5053343;28;20863;-42
2022/04/04 02:12:59;;;;;;;16.67;13.87;;;0.50;99.90;;;;;;5054043;28;20441;-42
2022/04/04 02:15:28;;;;;;;17.20;14.00;;;0.60;99.90;;;;;;5053638;28;20554;-42
2022/04/04 02:17:55;;;;;;;13.57;11.67;;;0.70;99.90;;;;;;5053020;28;20472;-42
2022/04/04 02:20:22;;;;;;;13.93;12.07;;;0.70;99.90;;;;;;5053247;28;20978;-42
2022/04/04 02:22:49;;;;;;;17.33;12.47;;;0.60;99.90;;;;;;5053601;28;20473;-42
2022/04/04 02:25:17;;;;;;;15.23;12.10;;;0.70;99.90;;;;;;5053529;28;20532;-42
2022/04/04 02:27:44;;;;;;;17.60;13.20;;;0.60;99.90;;;;;;5053666;28;20438;-42
2022/04/04 02:30:12;;;;;;;15.00;11.67;;;0.60;99.90;;;;;;5052987;28;20487;-42
2022/04/04 02:32:41;;;;;;;16.80;12.27;;;0.60;99.90;;;;;;5053536;28;20477;-42
2022/04/04 02:35:08;;;;;;;14.97;12.07;;;0.60;99.90;;;;;;5053095;28;20488;-42
2022/04/04 02:37:36;;;;;;;14.33;12.70;;;0.60;99.90;;;;;;5053345;28;20490;-42
2022/04/04 02:40:04;;;;;;;14.13;10.93;;;0.70;99.90;;;;;;5052761;28;20511;-42
2022/04/04 02:42:31;;;;;;;14.50;11.73;;;0.70;99.90;;;;;;5053025;28;20450;-42
2022/04/04 02:44:58;;;;;;;13.60;11.20;;;0.80;99.90;;;;;;5053051;28;20441;-42
2022/04/04 02:47:25;;;;;;;13.30;11.80;;;0.80;99.90;;;;;;5053081;28;20497;-42
2022/04/04 02:49:53;;;;;;;16.10;12.33;;;0.90;99.90;;;;;;5053004;28;20468;-42
2022/04/04 02:52:20;;;;;;;13.83;12.10;;;0.90;99.90;;;;;;5052443;28;20540;-42
2022/04/04 02:54:47;;;;;;;17.40;13.47;;;1.00;99.90;;;;;;5053133;28;20799;-41
2022/04/04 02:57:16;;;;;;;15.10;12.30;;;1.00;99.90;;;;;;5052891;28;20518;-42
2022/04/04 02:59:43;;;;;;;14.90;12.37;;;1.00;99.90;;;;;;5052527;28;20465;-42
2022/04/04 03:02:10;;;;;;;16.90;13.20;;;1.00;99.90;;;;;;5052609;28;20528;-42
2022/04/04 03:04:40;;;;;;;18.53;13.77;;;1.00;99.90;;;;;;5052831;28;20448;-42
2022/04/04 03:07:08;;;;;;;14.10;12.37;;;1.00;99.90;;;;;;5052313;28;20540;-42
2022/04/04 03:09:37;;;;;;;18.63;13.93;;;1.00;99.90;;;;;;5052060;28;20965;-42
2022/04/04 03:12:05;;;;;;;13.83;12.40;;;1.00;99.90;;;;;;5052643;28;20692;-42
2022/04/04 03:14:32;;;;;;;15.23;12.37;;;1.10;99.90;;;;;;5052346;28;20866;-41
2022/04/04 03:16:59;;;;;;;18.60;13.47;;;1.20;99.90;;;;;;5052513;28;20470;-42
2022/04/04 03:19:27;;;;;;;13.80;11.80;;;1.30;99.90;;;;;;5051909;28;20567;-42
2022/04/04 03:21:56;;;;;;;15.37;11.97;;;1.40;99.90;;;;;;5052214;28;20445;-42
2022/04/04 03:24:25;;;;;;;14.23;12.73;;;1.40;99.90;;;;;;5052379;28;20479;-42
2022/04/04 03:26:52;;;;;;;18.83;14.30;;;1.50;99.90;;;;;;5051846;28;21001;-42
2022/04/04 03:29:19;;;;;;;16.03;11.40;;;1.50;99.90;;;;;;5050493;28;20499;-41
2022/04/04 03:31:46;;;;;;;16.97;13.50;;;1.60;99.90;;;;;;5051842;28;20541;-42
2022/04/04 03:34:13;;;;;;;15.07;11.93;;;1.70;99.90;;;;;;5051979;28;20470;-42
2022/04/04 03:36:40;;;;;;;14.77;12.47;;;1.70;99.90;;;;;;5051730;28;20504;-42
2022/04/04 03:39:07;;;;;;;15.30;12.00;;;1.80;99.90;;;;;;5051559;28;20533;-41
2022/04/04 03:41:36;;;;;;;14.67;12.00;;;1.70;99.90;;;;;;5052260;28;20450;-42
2022/04/04 03:44:04;;;;;;;14.40;12.80;;;1.80;99.90;;;;;;5051915;28;20473;-42
2022/04/04 03:46:31;;;;;;;18.30;14.60;;;1.80;99.90;;;;;;5052003;28;20469;-42
2022/04/04 03:48:58;;;;;;;16.63;13.53;;;1.80;99.90;;;;;;5051762;28;20473;-42
2022/04/04 03:51:25;;;;;;;16.77;13.00;;;1.80;99.90;;;;;;5051385;28;20456;-42
2022/04/04 03:53:52;;;;;;;19.23;13.57;;;1.90;99.90;;;;;;5051696;28;20507;-42
2022/04/04 03:56:19;;;;;;;14.87;12.40;;;1.90;99.90;;;;;;5051630;28;20489;-42
2022/04/04 03:58:47;;;;;;;18.20;14.10;;;1.90;99.90;;;;;;5051932;28;20551;-42
2022/04/04 04:01:14;;;;;;;17.33;13.63;;;1.90;99.90;;;;;;5051324;28;21045;-42
2022/04/04 04:03:41;;;;;;;15.30;12.80;;;2.00;99.90;;;;;;5051297;28;20528;-42
2022/04/04 04:06:14;;;;;;;17.63;13.40;;;2.00;99.90;;;;;;5051352;28;20546;-42
2022/04/04 04:08:43;;;;;;;17.33;13.67;;;2.00;99.90;;;;;;5051620;28;20482;-43
2022/04/04 04:11:10;;;;;;;16.90;13.80;;;1.80;99.90;;;;;;5051435;28;20465;-43
2022/04/04 04:13:38;;;;;;;16.63;13.73;;;1.70;99.90;;;;;;5052244;28;20488;-42
2022/04/04 04:16:09;;;;;;;14.93;13.07;;;1.80;99.90;;;;;;5051262;28;20469;-42
2022/04/04 04:18:36;;;;;;;14.63;12.93;;;1.80;99.90;;;;;;5051230;28;20754;-43
2022/04/04 04:21:03;;;;;;;14.53;12.13;;;1.80;99.90;;;;;;5050905;28;20568;-42
2022/04/04 04:23:31;;;;;;;14.00;12.60;;;1.80;99.90;;;;;;5051141;28;20506;-42
2022/04/04 04:25:58;;;;;;;17.00;14.23;;;1.90;99.90;;;;;;5050952;28;20505;-42
2022/04/04 04:28:25;;;;;;;15.63;12.70;;;1.90;99.90;;;;;;5051317;28;20930;-42
2022/04/04 04:30:52;;;;;;;16.80;14.37;;;1.90;99.90;;;;;;5050887;28;20525;-42
2022/04/04 04:33:22;;;;;;;20.37;14.43;;;1.90;99.90;;;;;;5050965;28;20989;-42
2022/04/04 04:35:49;;;;;;;26.63;15.30;;;1.90;99.90;;;;;;5051283;28;20592;-42
2022/04/04 04:38:16;;;;;;;19.43;15.50;;;1.90;99.90;;;;;;5051307;28;20473;-42
2022/04/04 04:40:42;;;;;;;16.13;13.20;;;1.80;99.90;;;;;;5050538;28;20564;-42
2022/04/04 04:43:10;;;;;;;14.73;13.10;;;1.80;99.90;;;;;;5050989;28;20532;-42
2022/04/04 04:45:37;;;;;;;15.60;13.17;;;1.80;99.90;;;;;;5050929;28;20603;-42
2022/04/04 04:48:05;;;;;;;18.30;13.43;;;1.80;99.90;;;;;;5050834;28;20480;-42
2022/04/04 04:50:34;;;;;;;16.83;14.53;;;1.80;99.90;;;;;;5050566;28;20445;-42
2022/04/04 04:53:01;;;;;;;18.80;15.20;;;1.80;99.90;;;;;;5050195;28;20978;-42
2022/04/04 04:55:28;;;;;;;16.90;13.50;;;1.80;99.90;;;;;;5050727;28;20519;-42
2022/04/04 04:57:55;;;;;;;16.30;13.93;;;1.80;99.90;;;;;;5051068;28;20481;-42
2022/04/04 05:00:25;;;;;;;22.93;14.10;;;1.80;99.90;;;;;;5050695;28;20512;-42
2022/04/04 05:03:24;;;;;;;15.00;13.47;;;1.80;99.90;;;;;;5051241;28;20525;-42
2022/04/04 05:05:42;;;;;;;17.90;14.27;;;1.80;99.90;;;;;;5050684;28;20461;-42
2022/04/04 05:08:09;;;;;;;18.77;13.80;;;1.70;99.90;;;;;;5050823;28;20485;-42
2022/04/04 05:10:36;;;;;;;17.47;14.30;;;1.60;99.90;;;;;;5050542;28;20966;-42
2022/04/04 05:13:03;;;;;;;19.80;15.33;;;1.40;99.90;;;;;;5050812;28;20532;-42
2022/04/04 05:15:30;;;;;;;18.93;15.27;;;1.00;99.90;;;;;;5050810;28;20508;-42
2022/04/04 05:17:58;;;;;;;16.83;13.80;;;0.80;99.90;;;;;;5050970;28;20438;-42
2022/04/04 05:20:25;;;;;;;20.60;15.37;;;0.80;99.90;;;;;;5050422;28;20509;-42
2022/04/04 05:22:53;;;;;;;17.60;14.13;;;0.70;99.90;;;;;;5050730;28;20480;-42
2022/04/04 05:25:20;;;;;;;19.83;16.03;;;0.70;99.90;;;;;;5050168;28;20476;-42
2022/04/04 05:27:48;;;;;;;19.70;16.73;;;0.60;99.90;;;;;;5050760;28;20448;-42
2022/04/04 05:30:15;;;;;;;20.37;16.53;;;0.80;99.90;;;;;;5050349;28;20528;-42
2022/04/04 05:32:43;;;;;;;26.30;23.40;;;1.00;99.90;;;;;;5050700;28;20532;-42
2022/04/04 05:35:12;;;;;;;21.50;17.10;;;1.20;99.90;;;;;;5050437;28;20449;-42
2022/04/04 05:37:39;;;;;;;16.63;14.83;;;1.30;99.90;;;;;;5050172;28;20537;-42
2022/04/04 05:40:09;;;;;;;18.20;14.93;;;1.40;99.90;;;;;;5050243;28;20519;-42
2022/04/04 05:42:36;;;;;;;16.60;13.03;;;1.50;99.90;;;;;;5050441;28;20527;-42
2022/04/04 05:45:03;;;;;;;17.67;14.50;;;1.60;99.90;;;;;;5050642;28;20528;-42
2022/04/04 05:47:30;;;;;;;17.47;14.00;;;1.70;99.90;;;;;;5050242;28;21021;-42
2022/04/04 05:49:57;;;;;;;18.70;15.00;;;1.70;99.90;;;;;;5050659;28;20529;-42
2022/04/04 05:52:24;;;;;;;16.47;13.63;;;1.80;99.90;;;;;;5050215;28;20706;-42
2022/04/04 05:54:58;;;;;;;17.00;13.90;;;1.90;99.90;;;;;;5053968;28;20528;-42
2022/04/04 05:57:28;;;;;;;17.50;15.00;;;2.00;99.90;;;;;;5053999;28;20461;-42
2022/04/04 05:59:55;;;;;;;15.97;14.07;;;2.00;99.90;;;;;;5053451;28;20532;-43
2022/04/04 06:02:23;;;;;;;19.80;16.97;;;2.00;99.90;;;;;;5053707;28;20474;-42
2022/04/04 06:04:50;;;;;;;22.13;17.53;;;2.00;99.90;;;;;;5053895;28;20954;-43
2022/04/04 06:07:17;;;;;;;20.70;17.37;;;2.00;99.90;;;;;;5053701;28;20465;-42
2022/04/04 06:09:44;;;;;;;21.17;17.40;;;2.10;99.90;;;;;;5053625;28;20474;-42
2022/04/04 06:12:12;;;;;;;21.50;16.77;;;2.10;99.90;;;;;;5053666;28;20485;-42
2022/04/04 06:14:40;;;;;;;24.70;16.53;;;2.10;99.90;;;;;;5053521;28;20545;-42
2022/04/04 06:17:07;;;;;;;22.20;16.17;;;2.10;99.90;;;;;;5053504;28;20493;-42
2022/04/04 06:19:35;;;;;;;22.30;16.17;;;2.10;99.90;;;;;;5053305;28;20476;-42
2022/04/04 06:22:03;;;;;;;19.53;16.60;;;2.20;99.90;;;;;;5053674;28;20477;-42
2022/04/04 06:24:31;;;;;;;21.07;17.33;;;2.10;99.90;;;;;;5053553;28;20456;-43
2022/04/04 06:26:58;;;;;;;17.60;14.40;;;2.10;99.90;;;;;;5053391;28;20504;-42
2022/04/04 06:29:24;;;;;;;18.80;14.80;;;1.80;99.90;;;;;;5052794;28;20479;-42
2022/04/04 06:31:53;;;;;;;17.97;14.97;;;1.80;99.90;;;;;;5053426;28;20466;-42
2022/04/04 06:34:21;;;;;;;13.90;11.80;;;1.80;99.90;;;;;;5053178;28;20817;-42
2022/04/04 06:36:48;;;;;;;15.17;13.50;;;1.90;99.90;;;;;;5053261;28;20578;-42
2022/04/04 06:39:16;;;;;;;15.37;12.50;;;2.00;99.90;;;;;;5052951;28;20452;-42
2022/04/04 06:41:42;;;;;;;15.20;13.07;;;2.20;99.90;;;;;;5052869;28;20564;-42
2022/04/04 06:44:09;;;;;;;18.27;13.77;;;2.30;99.90;;;;;;5053194;28;20505;-42
2022/04/04 06:46:36;;;;;;;13.00;11.60;;;2.30;99.90;;;;;;5053442;28;20493;-42
2022/04/04 06:49:05;;;;;;;17.43;12.97;;;2.40;99.90;;;;;;5053004;28;20442;-42
2022/04/04 06:51:54;;;;;;;13.07;11.17;;;2.50;99.90;;;;;;5053053;28;20449;-42
2022/04/04 06:54:21;;;;;;;13.07;9.90;;;2.50;99.90;;;;;;5052736;28;20450;-42
2022/04/04 06:56:49;;;;;;;11.80;10.60;;;2.50;99.90;;;;;;5052626;28;20527;-42
2022/04/04 06:59:16;;;;;;;14.77;11.40;;;2.50;99.90;;;;;;5052573;28;20529;-42
2022/04/04 07:01:43;;;;;;;13.40;11.60;;;2.50;99.90;;;;;;5052594;28;20473;-43
2022/04/04 07:04:11;;;;;;;12.90;11.20;;;2.50;99.90;;;;;;5052941;28;20546;-42
2022/04/04 07:06:38;;;;;;;16.60;11.17;;;2.50;99.90;;;;;;5052760;28;21039;-43
2022/04/04 07:09:07;;;;;;;14.60;11.33;;;2.50;99.90;;;;;;5052427;28;20470;-42
2022/04/04 07:11:35;;;;;;;14.13;10.30;;;2.30;99.90;;;;;;5052632;28;20437;-42
2022/04/04 07:14:02;;;;;;;13.60;10.47;;;2.20;99.90;;;;;;5052470;28;20449;-42
2022/04/04 07:16:29;;;;;;;14.90;10.10;;;2.30;99.90;;;;;;5052338;28;20473;-42
2022/04/04 07:18:56;;;;;;;11.40;9.67;;;2.30;99.90;;;;;;5052577;28;20481;-43
2022/04/04 07:21:24;;;;;;;11.43;9.90;;;2.30;99.90;;;;;;5052102;28;20477;-42
2022/04/04 07:23:51;;;;;;;14.93;10.60;;;2.10;99.90;;;;;;5052401;28;20474;-42
2022/04/04 07:26:21;;;;;;;11.90;10.63;;;2.00;99.90;;;;;;5053590;28;20478;-44
2022/04/04 07:28:49;;;;;;;16.33;11.90;;;1.90;99.90;;;;;;5052239;28;20450;-46
2022/04/04 07:31:16;;;;;;;12.77;10.00;;;1.80;99.90;;;;;;5051569;28;20515;-44
2022/04/04 07:33:43;;;;;;;10.13;9.13;;;1.70;99.90;;;;;;5052050;28;21051;-44
2022/04/04 07:36:10;;;;;;;9.90;8.87;;;1.80;99.90;;;;;;5052093;28;20523;-45
2022/04/04 07:38:39;;;;;;;8.13;7.33;;;1.90;99.90;;;;;;5052239;28;20461;-45
2022/04/04 07:41:05;;;;;;;7.83;6.37;;;2.00;99.90;;;;;;5051745;28;20480;-44
2022/04/04 07:43:33;;;;;;;8.27;7.20;;;2.10;99.90;;;;;;5051979;28;20540;-44
2022/04/04 07:46:00;;;;;;;10.33;9.27;;;2.20;99.90;;;;;;5051990;28;20544;-47
2022/04/04 07:48:27;;;;;;;11.30;7.77;;;2.30;99.90;;;;;;5051526;28;20507;-47
2022/04/04 07:50:55;;;;;;;8.57;7.53;;;2.30;99.90;;;;;;5051600;28;20446;-45
2022/04/04 07:53:22;;;;;;;11.93;7.80;;;2.30;99.90;;;;;;5051551;28;20484;-47
2022/04/04 07:55:50;;;;;;;8.17;7.37;;;2.30;99.90;;;;;;5051862;28;20493;-44
2022/04/04 07:58:17;;;;;;;8.53;6.80;;;2.30;99.90;;;;;;5051686;28;20487;-44
2022/04/04 08:00:44;;;;;;;9.77;7.20;;;2.10;99.90;;;;;;5051434;28;20450;-47
2022/04/04 08:03:11;;;;;;;7.30;6.60;;;2.10;99.90;;;;;;5051727;28;20485;-44
2022/04/04 08:05:38;;;;;;;8.10;7.10;;;2.30;99.90;;;;;;5051468;28;20493;-44
2022/04/04 08:08:06;;;;;;;7.63;6.90;;;2.30;99.90;;;;;;5051371;28;20481;-45
2022/04/04 08:10:33;;;;;;;8.33;7.50;;;2.50;99.90;;;;;;5051300;28;20535;-44
2022/04/04 08:13:01;;;;;;;7.33;6.60;;;2.70;99.90;;;;;;5051577;28;20484;-44
2022/04/04 08:15:28;;;;;;;7.97;7.17;;;2.80;99.90;;;;;;5051028;28;20472;-44
2022/04/04 08:17:55;;;;;;;7.90;6.60;;;2.80;99.90;;;;;;5051432;28;20529;-44
2022/04/04 08:20:22;;;;;;;8.53;7.30;;;2.90;99.90;;;;;;5050962;28;20475;-44
2022/04/04 08:22:49;;;;;;;7.23;6.50;;;3.00;99.90;;;;;;5051390;28;20514;-44
2022/04/04 08:25:17;;;;;;;8.47;6.77;;;3.10;99.90;;;;;;5051248;28;20933;-48
2022/04/04 08:27:44;;;;;;;7.63;6.83;;;3.30;99.90;;;;;;5051341;28;20490;-44
2022/04/04 08:30:15;;;;;;;8.13;6.47;;;3.40;99.90;;;;;;5050667;28;20539;-44
2022/04/04 08:32:42;;;;;;;7.40;6.70;;;3.60;99.90;;;;;;5051140;28;20435;-44
2022/04/04 08:35:11;;;;;;;6.63;5.77;;;3.80;99.90;;;;;;5051095;28;20449;-44
2022/04/04 08:37:39;;;;;;;7.07;6.33;;;3.90;99.90;;;;;;5050803;28;20477;-44
2022/04/04 08:40:09;;;;;;;7.30;6.60;;;3.90;99.90;;;;;;5050722;28;20491;-44
2022/04/04 08:42:36;;;;;;;7.60;6.43;;;3.90;99.90;;;;;;5050870;28;21022;-44
2022/04/04 08:45:05;;;;;;;7.33;5.93;;;3.90;99.90;;;;;;5050998;28;20475;-44
2022/04/04 08:47:34;;;;;;;7.97;7.07;;;4.10;99.90;;;;;;5051099;28;20469;-44
2022/04/04 08:50:02;;;;;;;8.30;7.50;;;4.30;99.90;;;;;;5050657;28;20574;-44
2022/04/04 08:52:29;;;;;;;7.57;6.87;;;4.50;99.90;;;;;;5050379;28;20453;-44
2022/04/04 08:54:56;;;;;;;9.50;8.50;;;4.50;99.90;;;;;;5050979;28;20897;-44
2022/04/04 08:57:23;;;;;;;8.87;7.97;;;4.50;99.90;;;;;;5050822;28;20551;-45
2022/04/04 08:59:50;;;;;;;7.33;6.13;;;4.70;99.90;;;;;;5050608;28;20573;-44
2022/04/04 09:02:17;;;;;;;6.73;6.00;;;4.60;99.90;;;;;;5050642;28;21069;-45
2022/04/04 09:04:51;;;;;;;9.10;8.30;;;4.60;99.90;;;;;;5050990;28;20581;-44
2022/04/04 09:07:21;;;;;;;12.30;7.80;;;4.80;99.90;;;;;;5050890;28;20506;-44
2022/04/04 09:09:50;;;;;;;11.47;9.30;;;5.00;99.90;;;;;;5050403;28;20450;-45
2022/04/04 09:12:19;;;;;;;8.00;7.20;;;5.10;99.90;;;;;;5050733;28;20960;-44
2022/04/04 09:14:48;;;;;;;18.10;11.53;;;5.20;99.90;;;;;;5050988;28;20478;-46
2022/04/04 09:17:17;;;;;;;8.60;7.13;;;5.30;99.90;;;;;;5050918;28;20465;-44
2022/04/04 09:19:45;;;;;;;8.90;8.10;;;5.50;99.90;;;;;;5050659;28;20455;-45
2022/04/04 09:22:14;;;;;;;8.80;7.57;;;5.60;99.90;;;;;;5050846;28;20568;-45
2022/04/04 09:24:50;;;;;;;10.60;8.40;;;5.60;99.90;;;;;;5050985;28;20595;-45
2022/04/04 09:27:22;;;;;;;9.27;7.60;;;5.80;99.90;;;;;;5050559;28;20559;-45
2022/04/04 09:29:52;;;;;;;8.40;7.60;;;5.80;99.90;;;;;;5054523;28;20827;-44
2022/04/04 09:32:20;;;;;;;8.23;7.40;;;5.90;99.90;;;;;;5054454;28;20484;-45
2022/04/04 09:34:54;;;;;;;9.07;7.83;;;6.20;99.90;;;;;;5054457;28;20449;-44
2022/04/04 09:37:22;;;;;;;8.03;6.30;;;6.50;99.80;;;;;;5054093;28;20465;-44
2022/04/04 09:39:50;;;;;;;6.80;6.17;;;6.90;99.70;;;;;;5054374;28;20488;-44
2022/04/04 09:42:18;;;;;;;8.57;7.40;;;7.10;99.90;;;;;;5054062;28;20469;-46
2022/04/04 09:44:58;;;;;;;6.33;5.73;;;7.40;99.40;;;;;;5054290;28;20470;-48
2022/04/04 09:47:44;;;;;;;7.40;6.70;;;7.70;98.30;;;;;;5053980;28;21017;-44
2022/04/04 09:50:32;;;;;;;7.60;6.47;;;8.00;96.80;;;;;;5053658;28;20438;-47
2022/04/04 09:53:00;;;;;;;7.83;7.03;;;8.00;96.90;;;;;;5054083;28;20661;-45
2022/04/04 09:55:28;;;;;;;6.60;6.00;;;8.20;96.00;;;;;;5053548;28;20505;-45
2022/04/04 09:57:57;;;;;;;7.37;6.60;;;8.20;95.60;;;;;;5053785;28;20445;-44
2022/04/04 10:00:25;;;;;;;7.80;7.00;;;8.30;94.90;;;;;;5053725;28;20527;-45
2022/04/04 10:02:54;;;;;;;7.00;6.37;;;8.10;94.40;;;;;;5053737;28;21051;-45
2022/04/04 10:05:24;;;;;;;9.27;7.07;;;8.10;95.30;;;;;;5054051;28;20867;-45
2022/04/04 10:07:55;;;;;;;6.83;6.23;;;8.20;95.10;;;;;;5053526;28;20477;-45
2022/04/04 10:10:24;;;;;;;7.07;6.40;;;8.40;95.60;;;;;;5054005;28;20871;-44
2022/04/04 10:12:52;;;;;;;7.23;6.63;;;8.50;95.70;;;;;;5053757;28;20476;-44
2022/04/04 10:15:20;;;;;;;7.03;6.20;;;8.60;93.70;;;;;;5053516;28;20473;-45
2022/04/04 10:17:47;;;;;;;7.37;6.63;;;8.60;94.40;;;;;;5053692;28;20524;-48
2022/04/04 10:20:15;;;;;;;7.97;7.00;;;8.70;94.70;;;;;;5052821;28;20438;-45
2022/04/04 10:22:44;;;;;;;7.77;6.97;;;8.70;95.70;;;;;;5053039;28;20511;-45
2022/04/04 10:25:14;;;;;;;8.67;7.33;;;8.80;96.20;;;;;;5052928;28;20457;-45
2022/04/04 10:27:42;;;;;;;8.93;7.70;;;8.90;95.50;;;;;;5051869;28;20456;-45
2022/04/04 10:30:10;;;;;;;10.53;6.87;;;9.10;96.20;;;;;;5050765;28;20433;-45
2022/04/04 10:32:49;;;;;;;8.80;7.10;;;9.30;95.80;;;;;;5049672;28;20432;-45
2022/04/04 10:35:20;;;;;;;7.63;6.93;;;9.30;95.40;;;;;;5050068;28;20524;-48
2022/04/04 10:37:49;;;;;;;7.30;6.60;;;9.20;93.10;;;;;;5052696;28;20473;-45
2022/04/04 10:40:21;;;;;;;7.27;6.57;;;8.60;92.90;;;;;;5049243;28;20470;-44
2022/04/04 10:43:00;;;;;;;8.30;7.40;;;7.80;93.40;;;;;;5052806;28;20564;-44
2022/04/04 10:45:29;;;;;;;7.87;7.10;;;7.90;94.80;;;;;;5051548;28;20497;-45
2022/04/04 10:48:05;;;;;;;8.17;7.37;;;8.00;95.30;;;;;;5050286;28;20925;-45
2022/04/04 10:50:33;;;;;;;8.23;7.30;;;8.20;95.40;;;;;;5052047;28;20814;-45
2022/04/04 10:53:03;;;;;;;7.83;7.13;;;8.30;96.20;;;;;;5051065;28;20940;-45
2022/04/04 10:55:48;;;;;;;8.07;7.27;;;8.40;95.60;;;;;;5050845;28;21019;-45
2022/04/04 10:58:22;;;;;;;7.27;6.47;;;8.30;96.00;;;;;;5051238;28;20802;-45
2022/04/04 11:01:09;;;;;;;8.77;6.90;;;8.40;96.50;;;;;;5050586;28;20532;-46
2022/04/04 11:03:38;;;;;;;7.83;7.03;;;8.40;93.70;;;;;;5051346;28;20572;-44
2022/04/04 11:09:19;;;;;;;8.23;7.40;;;7.90;96.10;;;;;;5052480;28;20443;-47
2022/04/04 11:11:48;;;;;;;9.13;7.47;;;7.90;95.90;;;;;;5052010;28;20481;-46
2022/04/04 11:14:17;;;;;;;7.60;6.80;;;7.80;95.90;;;;;;5051377;28;20536;-45
2022/04/04 11:17:19;;;;;;;10.33;7.47;;;7.70;95.20;;;;;;5051629;28;20466;-44
2022/04/04 11:19:46;;;;;;;9.70;7.10;;;7.90;95.30;;;;;;5052314;28;20441;-45
2022/04/04 11:22:15;;;;;;;9.60;7.40;;;7.50;94.90;;;;;;5052072;28;20568;-47
2022/04/04 11:24:44;;;;;;;8.57;7.87;;;7.50;95.60;;;;;;5052745;28;20445;-45
2022/04/04 11:27:11;;;;;;;7.70;7.00;;;7.60;95.20;;;;;;5052231;28;20527;-44
2022/04/04 11:29:41;;;;;;;10.00;7.50;;;7.70;95.00;;;;;;5051584;28;20973;-44
2022/04/04 11:32:09;;;;;;;7.50;6.50;;;7.70;95.00;;;;;;5052402;28;20879;-44
2022/04/04 11:34:42;;;;;;;8.03;7.20;;;7.80;95.80;;;;;;5052161;28;20813;-45
2022/04/04 11:37:17;;;;;;;6.67;6.07;;;7.90;97.30;;;;;;5051832;28;20519;-44
2022/04/04 11:39:46;;;;;;;8.17;6.90;;;8.00;96.00;;;;;;5051820;28;20471;-45
2022/04/04 11:42:14;;;;;;;6.50;5.80;;;8.10;97.50;;;;;;5051978;28;20914;-45
2022/04/04 11:44:48;;;;;;;8.23;6.63;;;8.20;95.40;;;;;;5051941;28;20445;-45
2022/04/04 11:47:16;;;;;;;8.07;6.67;;;8.00;95.40;;;;;;5051909;28;20495;-45
2022/04/04 11:49:44;;;;;;;7.07;6.33;;;8.00;95.40;;;;;;5051870;28;20526;-46
2022/04/04 11:52:16;;;;;;;7.20;6.50;;;8.00;95.30;;;;;;5051345;28;20977;-44
2022/04/04 11:54:46;;;;;;;8.00;6.53;;;8.00;94.60;;;;;;5051780;28;20815;-44
2022/04/04 11:57:13;;;;;;;8.23;6.77;;;7.80;95.30;;;;;;5051794;28;20496;-44
2022/04/04 11:59:45;;;;;;;9.37;6.60;;;7.60;95.10;;;;;;5051378;28;20480;-45
2022/04/04 12:02:13;;;;;;;7.07;6.20;;;7.80;97.80;;;;;;5051833;28;20509;-46
2022/04/04 12:04:43;;;;;;;6.80;6.13;;;8.20;97.40;;;;;;5051720;28;20492;-45
2022/04/04 12:07:11;;;;;;;6.23;5.67;;;8.00;94.90;;;;;;5051723;28;20536;-46
2022/04/04 12:09:39;;;;;;;8.27;6.17;;;8.10;95.10;;;;;;5051367;28;20449;-47
2022/04/04 12:12:09;;;;;;;8.73;6.47;;;8.30;96.20;;;;;;5050949;28;20441;-45
2022/04/04 12:14:38;;;;;;;14.90;9.00;;;8.60;97.50;;;;;;5051517;28;20987;-44
2022/04/04 12:17:05;;;;;;;9.93;7.17;;;9.10;99.00;;;;;;5051582;28;20549;-46
2022/04/04 12:19:32;;;;;;;9.20;7.70;;;9.30;98.70;;;;;;5051238;28;20469;-45
2022/04/04 12:22:00;;;;;;;9.23;7.87;;;9.50;97.80;;;;;;5051622;28;20954;-45
2022/04/04 12:24:58;;;;;;;8.57;7.07;;;9.60;95.30;;;;;;5051345;28;20441;-45
2022/04/04 12:27:26;;;;;;;7.00;6.30;;;9.70;96.90;;;;;;5051297;28;20469;-45
2022/04/04 12:30:00;;;;;;;8.43;7.63;;;9.70;95.60;;;;;;5050881;28;20479;-45
2022/04/04 12:32:28;;;;;;;9.90;7.47;;;9.80;98.20;;;;;;5051591;28;20447;-45
2022/04/04 12:34:57;;;;;;;7.17;6.50;;;9.90;97.50;;;;;;5051348;28;20590;-44
2022/04/04 12:37:37;;;;;;;7.07;6.40;;;9.80;94.30;;;;;;5051108;28;20488;-45
2022/04/04 12:40:17;;;;;;;7.30;6.60;;;9.70;96.30;;;;;;5051086;28;20734;-45
2022/04/04 12:42:48;;;;;;;5.73;5.17;;;9.60;94.10;;;;;;5051675;28;20559;-45
2022/04/04 12:45:16;;;;;;;6.83;5.20;;;9.60;92.90;;;;;;5051156;28;20460;-44
2022/04/04 12:47:57;;;;;;;6.00;5.40;;;9.60;93.30;;;;;;5051059;28;20488;-45
2022/04/04 12:50:25;;;;;;;6.27;5.20;;;9.70;94.80;;;;;;5050656;28;20934;-45
2022/04/04 12:52:57;;;;;;;6.50;5.80;;;9.80;96.90;;;;;;5051062;28;20867;-42
2022/04/04 12:55:24;;;;;;;8.00;5.60;;;9.90;96.70;;;;;;5050986;28;20457;-42
2022/04/04 12:57:52;;;;;;;6.97;6.27;;;10.00;94.20;;;;;;5051081;28;20956;-42
2022/04/04 13:00:27;;;;;;;5.40;4.90;;;10.10;94.60;;;;;;5050322;28;20480;-44